createdAt,value
2022-10-11T00:00:54.190Z,4.68
2022-10-11T00:04:55.868Z,4.30
2022-10-11T00:08:57.423Z,4.60
2022-10-11T00:12:59.296Z,4.15
2022-10-11T00:17:01.008Z,4.78
2022-10-11T00:21:07.947Z,3.70
2022-10-11T00:25:10.848Z,3.93
2022-10-11T00:29:12.857Z,4.10
2022-10-11T00:33:14.275Z,6.00
2022-10-11T00:37:15.760Z,4.18
2022-10-11T00:41:17.736Z,3.78
2022-10-11T00:45:28.247Z,4.03
2022-10-11T00:49:37.655Z,3.67
2022-10-11T00:53:39.293Z,3.53
2022-10-11T00:57:43.920Z,3.75
2022-10-11T01:01:45.585Z,4.35
2022-10-11T01:05:47.604Z,3.70
2022-10-11T01:09:50.072Z,4.30
2022-10-11T01:14:04.999Z,3.92
2022-10-11T01:18:25.005Z,4.38
2022-10-11T01:23:03.803Z,4.60
2022-10-11T01:27:16.392Z,4.07
2022-10-11T01:31:23.392Z,5.13
2022-10-11T01:35:31.275Z,5.53
2022-10-11T01:39:38.924Z,5.70
2022-10-11T01:43:41.436Z,5.80
2022-10-11T01:47:45.685Z,6.35
2022-10-11T01:51:51.431Z,5.68
2022-10-11T01:56:18.962Z,6.97
2022-10-11T02:00:22.746Z,6.88
2022-10-11T02:04:35.099Z,7.65
2022-10-11T02:08:42.705Z,7.60
2022-10-11T02:12:49.419Z,8.48
2022-10-11T02:17:04.479Z,6.82
2022-10-11T02:21:08.805Z,6.70
2022-10-11T02:25:14.283Z,7.10
2022-10-11T02:29:16.591Z,6.68
2022-10-11T02:33:21.951Z,7.00
2022-10-11T02:37:36.971Z,6.05
2022-10-11T02:41:40.335Z,5.72
2022-10-11T02:45:44.268Z,6.25
2022-10-11T02:49:45.888Z,6.30
2022-10-11T02:53:47.288Z,6.30
2022-10-11T02:57:48.823Z,6.68
2022-10-11T03:01:50.413Z,7.05
2022-10-11T03:05:58.419Z,8.05
2022-10-11T03:10:00.118Z,8.85
2022-10-11T03:14:01.583Z,7.97
2022-10-11T03:18:03.240Z,9.02
2022-10-11T03:22:04.676Z,8.57
2022-10-11T03:26:06.796Z,8.90
2022-10-11T03:30:10.005Z,8.98
2022-10-11T03:34:11.570Z,8.75
2022-10-11T03:38:14.584Z,7.60
2022-10-11T03:42:17.018Z,8.23
2022-10-11T03:46:19.116Z,8.90
2022-10-11T03:50:20.667Z,8.68
2022-10-11T03:54:22.346Z,7.57
2022-10-11T03:58:25.013Z,8.32
2022-10-11T04:02:26.714Z,9.13
2022-10-11T04:06:28.150Z,9.35
2022-10-11T04:10:31.507Z,13.13
2022-10-11T04:14:32.922Z,15.40
2022-10-11T04:18:34.474Z,17.45
2022-10-11T04:22:36.435Z,20.42
2022-10-11T04:26:38.113Z,21.52
2022-10-11T04:30:39.543Z,23.23
2022-10-11T04:34:41.253Z,22.52
2022-10-11T04:38:42.843Z,24.25
2022-10-11T04:42:44.551Z,21.80
2022-10-11T04:46:46.682Z,22.52
2022-10-11T04:50:48.123Z,25.15
2022-10-11T04:54:49.630Z,26.42
2022-10-11T04:58:54.195Z,27.38
2022-10-11T05:02:55.683Z,27.38
2022-10-11T05:06:57.253Z,26.98
2022-10-11T05:11:06.760Z,25.25
2022-10-11T05:15:09.659Z,25.25
2022-10-11T05:19:11.194Z,25.23
2022-10-11T05:23:12.802Z,23.88
2022-10-11T05:27:14.225Z,27.25
2022-10-11T05:31:16.427Z,25.35
2022-10-11T05:35:17.910Z,26.60
2022-10-11T05:39:19.281Z,23.98
2022-10-11T05:43:20.928Z,24.02
2022-10-11T05:47:22.765Z,26.25
2022-10-11T05:51:24.231Z,26.08
2022-10-11T05:55:25.806Z,27.67
2022-10-11T05:59:27.664Z,28.80
2022-10-11T06:03:29.228Z,28.42
2022-10-11T06:07:33.601Z,28.20
2022-10-11T06:11:35.420Z,29.38
2022-10-11T06:15:39.043Z,29.33
2022-10-11T06:19:40.756Z,30.05
2022-10-11T06:23:42.261Z,30.27
2022-10-11T06:27:44.053Z,28.45
2022-10-11T06:31:45.600Z,29.25
2022-10-11T06:35:47.251Z,26.90
2022-10-11T06:39:50.384Z,28.65
2022-10-11T06:43:52.218Z,28.67
2022-10-11T06:47:53.847Z,27.95
2022-10-11T06:52:02.197Z,29.10
2022-10-11T06:56:13.193Z,30.27
2022-10-11T07:00:15.332Z,29.08
2022-10-11T07:04:16.719Z,30.23
2022-10-11T07:08:45.841Z,29.58
2022-10-11T07:12:47.302Z,28.45
2022-10-11T07:16:48.784Z,29.52
2022-10-11T07:20:50.487Z,27.63
2022-10-11T07:25:26.391Z,27.33
2022-10-11T07:29:27.883Z,29.27
2022-10-11T07:33:29.258Z,27.60
2022-10-11T07:37:30.867Z,30.35
2022-10-11T07:41:32.523Z,29.40
2022-10-11T07:45:33.933Z,28.55
2022-10-11T07:49:35.310Z,30.20
2022-10-11T07:53:44.773Z,31.88
2022-10-11T07:57:46.154Z,30.83
2022-10-11T08:01:47.734Z,30.70
2022-10-11T08:05:49.485Z,31.13
2022-10-11T08:09:50.931Z,28.35
2022-10-11T08:13:53.446Z,29.20
2022-10-11T08:17:54.815Z,31.13
2022-10-11T08:21:56.264Z,28.92
2022-10-11T08:25:58.305Z,29.25
2022-10-11T08:29:59.675Z,29.15
2022-10-11T08:34:01.064Z,26.58
2022-10-11T08:38:02.959Z,27.48
2022-10-11T08:42:15.760Z,26.55
2022-10-11T08:46:23.017Z,27.92
2022-10-11T08:50:24.544Z,26.23
2022-10-11T08:54:32.621Z,24.70
2022-10-11T08:59:09.311Z,26.40
2022-10-11T09:03:22.980Z,28.00
2022-10-11T09:08:16.544Z,28.25
2022-10-11T09:13:03.743Z,26.33
2022-10-11T09:17:23.995Z,26.90
2022-10-11T09:22:03.279Z,26.40
2022-10-11T09:26:23.080Z,30.75
2022-10-11T09:30:24.605Z,26.83
2022-10-11T09:34:32.228Z,28.65
2022-10-11T09:39:01.816Z,28.77
2022-10-11T09:43:05.960Z,25.55
2022-10-11T09:47:14.655Z,28.63
2022-10-11T09:51:20.336Z,27.55
2022-10-11T09:55:32.319Z,25.98
2022-10-11T09:59:35.173Z,27.80
2022-10-11T10:03:43.975Z,28.08
2022-10-11T10:08:05.488Z,28.48
2022-10-11T10:12:21.546Z,26.50
2022-10-11T10:16:28.804Z,25.33
2022-10-11T10:20:33.427Z,23.90
2022-10-11T10:24:38.357Z,23.85
2022-10-11T10:29:05.261Z,25.35
2022-10-11T10:33:10.907Z,24.07
2022-10-11T10:37:20.146Z,26.20
2022-10-11T10:41:21.617Z,24.63
2022-10-11T10:45:29.324Z,24.48
2022-10-11T10:49:54.066Z,24.85
2022-10-11T10:54:02.118Z,23.88
2022-10-11T10:58:15.052Z,22.58
2022-10-11T11:02:41.758Z,21.77
2022-10-11T11:06:54.840Z,21.30
2022-10-11T11:11:39.812Z,22.42
2022-10-11T11:16:02.927Z,20.63
2022-10-11T11:20:23.251Z,20.33
2022-10-11T11:24:48.985Z,21.25
2022-10-11T11:29:05.758Z,21.75
2022-10-11T11:33:29.958Z,20.97
2022-10-11T11:43:26.777Z,20.50
2022-10-11T11:48:37.158Z,19.13
2022-10-11T12:02:31.929Z,19.08
2022-10-11T12:07:04.047Z,19.30
2022-10-11T12:11:07.242Z,18.08
2022-10-11T12:20:21.311Z,17.33
2022-10-11T12:24:29.399Z,20.52
2022-10-11T12:29:29.060Z,19.65
2022-10-11T12:33:49.723Z,19.13
2022-10-11T12:38:15.934Z,18.55
2022-10-11T12:42:32.461Z,17.60
2022-10-11T12:47:18.462Z,16.67
2022-10-11T12:57:02.523Z,16.90
2022-10-11T13:01:04.348Z,13.73
2022-10-11T13:05:24.954Z,14.13
2022-10-11T13:10:27.668Z,15.23
2022-10-11T13:14:31.447Z,13.93
2022-10-11T13:18:33.082Z,13.73
2022-10-11T13:22:50.999Z,13.85
2022-10-11T13:26:57.246Z,15.25
2022-10-11T13:31:11.074Z,12.43
2022-10-11T13:35:35.525Z,13.00
2022-10-11T13:39:39.280Z,14.88
2022-10-11T13:43:40.928Z,13.15
2022-10-11T13:48:01.869Z,12.98
2022-10-11T13:52:25.386Z,14.00
2022-10-11T13:56:28.301Z,13.45
2022-10-11T14:04:39.698Z,13.32
2022-10-11T14:08:47.247Z,12.77
2022-10-11T14:13:04.350Z,14.25
2022-10-11T14:17:16.282Z,12.32
2022-10-11T14:21:20.831Z,13.65
2022-10-11T14:25:22.678Z,13.05
2022-10-11T14:29:28.679Z,13.35
2022-10-11T14:33:30.165Z,12.80
2022-10-11T14:37:31.848Z,12.43
2022-10-11T14:41:33.345Z,12.52
2022-10-11T14:45:35.165Z,12.60
2022-10-11T14:49:37.669Z,10.07
2022-10-11T14:53:42.322Z,11.90
2022-10-11T14:57:44.679Z,11.57
2022-10-11T15:01:51.742Z,12.07
2022-10-11T15:05:53.299Z,12.27
2022-10-11T15:09:55.113Z,11.98
2022-10-11T15:13:56.583Z,13.05
2022-10-11T15:17:59.943Z,12.25
2022-10-11T15:22:02.905Z,12.80
2022-10-11T15:26:05.050Z,13.05
2022-10-11T15:30:41.423Z,13.85
2022-10-11T15:34:44.540Z,14.10
2022-10-11T15:38:46.852Z,12.88
2022-10-11T15:42:50.398Z,13.57
2022-10-11T15:46:52.443Z,12.82
2022-10-11T15:50:54.563Z,13.02
2022-10-11T15:54:56.386Z,13.18
2022-10-11T15:58:58.097Z,12.85
2022-10-11T16:02:59.732Z,14.40
2022-10-11T16:07:01.502Z,14.80
2022-10-11T16:11:05.161Z,13.68
2022-10-11T16:15:08.047Z,14.02
2022-10-11T16:19:09.579Z,13.82
2022-10-11T16:23:12.233Z,13.25
2022-10-11T16:27:17.959Z,14.60
2022-10-11T16:31:21.043Z,13.50
2022-10-11T16:35:22.864Z,14.55
2022-10-11T16:39:24.543Z,13.77
2022-10-11T16:43:27.235Z,13.77
2022-10-11T16:47:28.819Z,13.98
2022-10-11T16:51:30.332Z,17.10
2022-10-11T16:55:31.949Z,14.63
2022-10-11T16:59:33.602Z,14.75
2022-10-11T17:03:35.147Z,17.00
2022-10-11T17:07:36.806Z,15.30
2022-10-11T17:11:38.429Z,16.20
2022-10-11T17:15:40.427Z,16.52
2022-10-11T17:19:45.367Z,16.48
2022-10-11T17:23:49.059Z,16.27
2022-10-11T17:27:50.695Z,16.23
2022-10-11T17:31:53.575Z,17.15
2022-10-11T17:35:59.675Z,16.88
2022-10-11T17:40:01.133Z,15.82
2022-10-11T17:44:03.333Z,16.13
2022-10-11T17:48:04.873Z,17.05
2022-10-11T17:52:06.303Z,18.45
2022-10-11T17:56:17.271Z,17.75
2022-10-11T18:00:18.787Z,17.27
2022-10-11T18:04:21.778Z,18.40
2022-10-11T18:08:23.231Z,18.23
2022-10-11T18:12:25.998Z,17.70
2022-10-11T18:16:29.509Z,17.55
2022-10-11T18:20:33.552Z,16.73
2022-10-11T18:24:35.155Z,17.92
2022-10-11T18:28:36.694Z,17.58
2022-10-11T18:32:38.654Z,18.90
2022-10-11T18:36:42.123Z,18.23
2022-10-11T18:40:47.169Z,18.90
2022-10-11T18:44:48.982Z,19.08
2022-10-11T18:48:53.371Z,19.73
2022-10-11T18:52:54.809Z,19.05
2022-10-11T18:56:56.296Z,19.13
2022-10-11T19:01:11.973Z,17.23
2022-10-11T19:05:13.713Z,16.67
2022-10-11T19:09:21.475Z,18.63
2022-10-11T19:17:24.773Z,19.10
2022-10-11T19:21:26.383Z,20.20
2022-10-11T19:25:28.012Z,21.27
2022-10-11T19:29:30.632Z,19.83
2022-10-11T19:33:33.623Z,21.27
2022-10-11T19:37:38.001Z,19.10
2022-10-11T19:41:39.992Z,20.42
2022-10-11T19:45:41.549Z,21.48
2022-10-11T19:49:43.103Z,20.40
2022-10-11T19:53:45.928Z,22.00
2022-10-11T19:57:47.474Z,22.30
2022-10-11T20:01:52.751Z,21.45
2022-10-11T20:05:55.299Z,20.83
2022-10-11T20:09:56.862Z,21.80
2022-10-11T20:13:58.467Z,21.17
2022-10-11T20:18:00.678Z,22.52
2022-10-11T20:22:02.158Z,23.08
2022-10-11T20:26:18.242Z,20.00
2022-10-11T20:30:20.202Z,21.23
2022-10-11T20:34:21.847Z,20.38
2022-10-11T20:38:24.000Z,20.52
2022-10-11T20:42:29.767Z,20.05
2022-10-11T20:46:37.529Z,20.05
2022-10-11T20:50:45.725Z,21.52
2022-10-11T20:54:47.147Z,21.80
2022-10-11T20:58:53.343Z,20.40
2022-10-11T21:02:54.756Z,19.67
2022-10-11T21:06:56.293Z,21.40
2022-10-11T21:10:58.380Z,20.83
2022-10-11T21:14:59.771Z,20.85
2022-10-11T21:19:02.062Z,20.50
2022-10-11T21:23:03.687Z,21.58
2022-10-11T21:27:05.126Z,19.45
2022-10-11T21:31:11.822Z,22.75
2022-10-11T21:35:13.340Z,19.67
2022-10-11T21:39:15.244Z,22.08
2022-10-11T21:43:17.122Z,21.67
2022-10-11T21:47:18.545Z,19.05
2022-10-11T21:51:24.756Z,20.50
2022-10-11T21:55:27.219Z,19.83
2022-10-11T21:59:28.796Z,20.92
2022-10-11T22:03:31.054Z,20.60
2022-10-11T22:07:32.621Z,23.25
2022-10-11T22:11:34.711Z,22.20
2022-10-11T22:15:36.896Z,23.13
2022-10-11T22:19:38.549Z,21.67
2022-10-11T22:23:40.885Z,21.88
2022-10-11T22:27:42.324Z,22.67
2022-10-11T22:31:43.992Z,21.38
2022-10-11T22:35:45.472Z,22.60
2022-10-11T22:39:46.839Z,21.00
2022-10-11T22:43:48.610Z,21.88
2022-10-11T22:47:50.008Z,20.33
2022-10-11T22:51:51.647Z,22.55
2022-10-11T22:55:53.150Z,22.55
2022-10-11T22:59:54.707Z,20.25
2022-10-11T23:03:56.633Z,21.88
2022-10-11T23:07:58.251Z,21.35
2022-10-11T23:12:00.041Z,22.25
2022-10-11T23:16:08.705Z,21.42
2022-10-11T23:20:10.704Z,22.65
2022-10-11T23:24:12.299Z,21.02
2022-10-11T23:28:13.794Z,21.40
2022-10-11T23:32:15.246Z,22.30
2022-10-11T23:36:18.695Z,21.83
2022-10-11T23:40:20.725Z,21.17
2022-10-11T23:44:22.334Z,20.23
2022-10-11T23:48:23.732Z,22.65
2022-10-11T23:52:25.303Z,23.55
2022-10-11T23:56:26.876Z,21.13
